createdAt,value
2019-03-09T00:02:01.165Z,7.70
2019-03-09T00:04:29.597Z,7.70
2019-03-09T00:06:58.034Z,7.70
2019-03-09T00:09:26.486Z,7.70
2019-03-09T00:11:54.921Z,7.70
2019-03-09T00:14:23.341Z,7.70
2019-03-09T00:16:51.783Z,7.80
2019-03-09T00:19:21.215Z,7.70
2019-03-09T00:21:49.649Z,7.80
2019-03-09T00:24:31.705Z,7.80
2019-03-09T00:27:07.988Z,7.90
2019-03-09T00:29:43.782Z,7.80
2019-03-09T00:32:13.840Z,7.80
2019-03-09T00:34:42.468Z,7.90
2019-03-09T00:37:10.893Z,7.80
2019-03-09T00:39:39.328Z,7.80
2019-03-09T00:42:07.757Z,7.80
2019-03-09T00:44:36.202Z,7.90
2019-03-09T00:47:04.649Z,8.00
2019-03-09T00:49:33.086Z,8.00
2019-03-09T00:52:01.577Z,8.00
2019-03-09T00:54:30.018Z,8.00
2019-03-09T00:57:00.777Z,7.90
2019-03-09T00:59:29.221Z,7.90
2019-03-09T01:01:57.668Z,7.90
2019-03-09T01:04:26.992Z,8.00
2019-03-09T01:06:55.429Z,8.00
2019-03-09T01:09:24.011Z,8.00
2019-03-09T01:11:52.454Z,8.10
2019-03-09T01:14:20.872Z,8.00
2019-03-09T01:16:49.326Z,8.10
2019-03-09T01:19:17.805Z,8.10
2019-03-09T01:21:46.245Z,8.10
2019-03-09T01:24:14.676Z,8.00
2019-03-09T01:26:43.119Z,7.90
2019-03-09T01:29:11.550Z,7.90
2019-03-09T01:31:39.989Z,7.80
2019-03-09T01:34:08.417Z,7.70
2019-03-09T01:36:36.932Z,7.70
2019-03-09T01:39:06.109Z,7.60
2019-03-09T01:41:34.537Z,7.50
2019-03-09T01:44:02.957Z,7.60
2019-03-09T01:46:31.389Z,7.60
2019-03-09T01:48:59.819Z,7.60
2019-03-09T01:51:28.268Z,7.50
2019-03-09T01:53:56.689Z,7.60
2019-03-09T01:56:25.496Z,7.60
2019-03-09T01:58:53.921Z,7.60
2019-03-09T02:01:22.360Z,7.60
2019-03-09T02:03:50.805Z,7.60
2019-03-09T02:06:19.226Z,7.60
2019-03-09T02:08:47.670Z,7.70
2019-03-09T02:11:16.096Z,7.70
2019-03-09T02:13:44.533Z,7.70
2019-03-09T02:16:12.957Z,7.70
2019-03-09T02:18:41.407Z,7.70
2019-03-09T02:21:10.097Z,7.80
2019-03-09T02:23:38.537Z,7.70
2019-03-09T02:26:07.233Z,7.60
2019-03-09T02:28:35.673Z,7.50
2019-03-09T02:31:04.113Z,7.50
2019-03-09T02:33:32.550Z,7.40
2019-03-09T02:36:01.003Z,7.40
2019-03-09T02:38:31.133Z,7.50
2019-03-09T02:40:59.563Z,7.40
2019-03-09T02:43:27.989Z,7.30
2019-03-09T02:45:56.490Z,7.30
2019-03-09T02:48:24.963Z,7.20
2019-03-09T02:50:56.352Z,7.20
2019-03-09T02:53:25.870Z,7.10
2019-03-09T02:55:54.482Z,7.10
2019-03-09T02:58:23.053Z,7.10
2019-03-09T03:00:56.016Z,7.10
2019-03-09T03:03:24.451Z,7.00
2019-03-09T03:05:52.932Z,7.10
2019-03-09T03:08:21.446Z,7.10
2019-03-09T03:10:49.873Z,7.10
2019-03-09T03:13:18.304Z,7.10
2019-03-09T03:15:46.749Z,7.00
2019-03-09T03:18:15.182Z,7.10
2019-03-09T03:20:43.620Z,7.10
2019-03-09T03:23:12.070Z,7.10
2019-03-09T03:25:40.490Z,7.00
2019-03-09T03:28:08.924Z,7.00
2019-03-09T03:30:37.350Z,7.00
2019-03-09T03:33:05.846Z,7.00
2019-03-09T03:35:34.494Z,7.10
2019-03-09T03:38:02.933Z,7.00
2019-03-09T03:40:31.377Z,7.00
2019-03-09T03:42:59.804Z,7.10
2019-03-09T03:45:28.245Z,7.10
2019-03-09T03:47:56.676Z,7.10
2019-03-09T03:50:25.133Z,7.10
2019-03-09T03:52:53.630Z,7.10
2019-03-09T03:55:22.252Z,7.00
2019-03-09T03:57:50.746Z,7.00
2019-03-09T04:00:19.215Z,7.00
2019-03-09T04:02:47.729Z,7.00
2019-03-09T04:05:16.241Z,7.00
2019-03-09T04:07:44.863Z,7.00
2019-03-09T04:10:14.239Z,7.00
2019-03-09T04:12:43.310Z,6.90
2019-03-09T04:15:12.192Z,6.90
2019-03-09T04:17:40.629Z,6.90
2019-03-09T04:20:11.196Z,7.00
2019-03-09T04:22:39.693Z,7.00
2019-03-09T04:25:09.084Z,7.00
2019-03-09T04:27:37.568Z,7.00
2019-03-09T04:30:09.051Z,7.00
2019-03-09T04:32:37.479Z,7.00
2019-03-09T04:35:06.657Z,7.00
2019-03-09T04:37:35.099Z,7.00
2019-03-09T04:40:08.805Z,7.00
2019-03-09T04:42:37.234Z,7.10
2019-03-09T04:45:10.693Z,7.10
2019-03-09T04:47:39.114Z,7.10
2019-03-09T04:50:10.634Z,7.20
2019-03-09T04:52:39.065Z,7.10
2019-03-09T04:55:08.770Z,7.10
2019-03-09T04:57:37.199Z,7.10
2019-03-09T05:00:10.718Z,7.10
2019-03-09T05:02:39.332Z,7.00
2019-03-09T05:05:09.735Z,7.00
2019-03-09T05:07:40.005Z,7.00
2019-03-09T05:10:17.548Z,7.00
2019-03-09T05:12:49.526Z,7.00
2019-03-09T05:15:17.974Z,7.00
2019-03-09T05:17:46.404Z,7.00
2019-03-09T05:20:14.845Z,7.00
2019-03-09T05:22:43.344Z,7.00
2019-03-09T05:25:11.800Z,6.90
2019-03-09T05:27:40.215Z,6.90
2019-03-09T05:30:14.902Z,7.00
2019-03-09T05:32:43.321Z,7.00
2019-03-09T05:35:11.745Z,7.00
2019-03-09T05:37:43.389Z,6.90
2019-03-09T05:40:10.345Z,7.00
2019-03-09T05:42:38.780Z,7.00
2019-03-09T05:45:08.244Z,7.10
2019-03-09T05:47:36.680Z,7.10
2019-03-09T05:50:07.646Z,7.10
2019-03-09T05:52:36.142Z,7.10
2019-03-09T05:55:07.946Z,7.10
2019-03-09T05:57:36.370Z,7.10
2019-03-09T06:00:07.883Z,7.10
2019-03-09T06:02:36.327Z,7.20
2019-03-09T06:05:07.418Z,7.20
2019-03-09T06:07:35.850Z,7.30
2019-03-09T06:10:06.013Z,7.30
2019-03-09T06:12:34.440Z,7.30
2019-03-09T06:15:02.857Z,7.30
2019-03-09T06:17:31.301Z,7.30
2019-03-09T06:19:59.728Z,7.40
2019-03-09T06:22:28.157Z,7.30
2019-03-09T06:24:56.584Z,7.40
2019-03-09T06:27:25.009Z,7.40
2019-03-09T06:29:53.428Z,7.50
2019-03-09T06:32:34.184Z,7.40
2019-03-09T06:35:02.688Z,7.50
2019-03-09T06:37:32.905Z,7.60
2019-03-09T06:40:01.328Z,7.50
2019-03-09T06:42:41.150Z,7.60
2019-03-09T06:45:11.516Z,7.50
2019-03-09T06:47:39.937Z,7.30
2019-03-09T06:50:15.884Z,7.30
2019-03-09T06:52:44.876Z,7.30
2019-03-09T06:55:14.628Z,7.30
2019-03-09T06:57:43.060Z,7.30
2019-03-09T07:00:20.407Z,7.30
2019-03-09T07:02:48.833Z,7.40
2019-03-09T07:05:17.265Z,7.50
2019-03-09T07:07:45.701Z,7.50
2019-03-09T07:10:14.122Z,7.60
2019-03-09T07:12:42.556Z,7.50
2019-03-09T07:15:31.777Z,7.60
2019-03-09T07:18:02.841Z,7.60
2019-03-09T07:20:31.258Z,7.60
2019-03-09T07:22:59.693Z,7.60
2019-03-09T07:25:28.183Z,7.60
2019-03-09T07:28:02.509Z,7.60
2019-03-09T07:30:31.004Z,7.60
2019-03-09T07:32:59.533Z,7.70
2019-03-09T07:35:28.318Z,7.70
2019-03-09T07:37:56.739Z,7.70
2019-03-09T07:40:25.180Z,7.70
2019-03-09T07:42:53.597Z,7.70
2019-03-09T07:45:22.104Z,7.70
2019-03-09T07:47:50.550Z,7.80
2019-03-09T07:50:19.043Z,7.80
2019-03-09T07:52:47.525Z,7.80
2019-03-09T07:55:17.308Z,7.80
2019-03-09T07:57:45.999Z,7.80
2019-03-09T08:00:19.002Z,7.80
2019-03-09T08:02:47.665Z,7.80
2019-03-09T08:05:16.164Z,7.70
2019-03-09T08:07:44.973Z,7.70
2019-03-09T08:10:21.249Z,7.70
2019-03-09T08:12:49.678Z,7.80
2019-03-09T08:15:19.241Z,7.90
2019-03-09T08:17:47.660Z,7.80
2019-03-09T08:20:18.196Z,7.90
2019-03-09T08:22:46.954Z,7.90
2019-03-09T08:25:17.030Z,7.90
2019-03-09T08:27:45.545Z,7.90
2019-03-09T08:30:22.609Z,8.00
2019-03-09T08:32:51.058Z,7.90
2019-03-09T08:35:19.885Z,7.90
2019-03-09T08:37:49.390Z,8.00
2019-03-09T08:40:18.879Z,8.00
2019-03-09T08:42:47.299Z,8.10
2019-03-09T08:45:17.551Z,8.10
2019-03-09T08:47:52.087Z,8.20
2019-03-09T08:50:21.369Z,8.30
2019-03-09T08:52:49.948Z,8.30
2019-03-09T08:55:18.535Z,8.30
2019-03-09T08:57:47.138Z,8.20
2019-03-09T09:00:30.919Z,8.20
2019-03-09T09:02:59.370Z,8.30
2019-03-09T09:05:27.813Z,8.30
2019-03-09T09:07:56.308Z,8.30
2019-03-09T09:10:24.736Z,8.40
2019-03-09T09:12:53.237Z,8.40
2019-03-09T09:15:21.761Z,8.50
2019-03-09T09:17:50.189Z,8.50
2019-03-09T09:20:28.190Z,8.40
2019-03-09T09:22:56.687Z,8.30
2019-03-09T09:25:25.113Z,8.20
2019-03-09T09:27:54.645Z,8.20
2019-03-09T09:30:30.739Z,8.30
2019-03-09T09:32:59.170Z,8.40
2019-03-09T09:35:27.587Z,8.30
2019-03-09T09:37:56.014Z,8.40
2019-03-09T09:40:26.757Z,8.40
2019-03-09T09:42:55.465Z,8.50
2019-03-09T09:45:24.133Z,8.50
2019-03-09T09:47:52.557Z,8.60
2019-03-09T09:50:20.979Z,8.60
2019-03-09T09:52:49.402Z,8.60
2019-03-09T09:55:19.521Z,8.60
2019-03-09T09:57:47.954Z,8.50
2019-03-09T10:00:26.680Z,8.40
2019-03-09T10:02:55.170Z,8.50
2019-03-09T10:05:24.644Z,8.60
2019-03-09T10:07:53.266Z,8.60
2019-03-09T10:10:24.581Z,8.70
2019-03-09T10:12:53.085Z,8.60
2019-03-09T10:15:34.173Z,8.50
2019-03-09T10:18:02.632Z,8.60
2019-03-09T10:20:31.127Z,8.70
2019-03-09T10:23:04.076Z,8.70
2019-03-09T10:25:29.709Z,8.90
2019-03-09T10:27:58.132Z,9.00
2019-03-09T10:30:26.897Z,8.90
2019-03-09T10:32:55.337Z,8.80
2019-03-09T10:35:23.765Z,8.80
2019-03-09T10:37:52.200Z,8.80
2019-03-09T10:40:20.620Z,8.80
2019-03-09T10:42:49.094Z,8.90
2019-03-09T10:45:18.752Z,9.00
2019-03-09T10:47:47.244Z,9.00
2019-03-09T10:50:16.605Z,9.00
2019-03-09T10:52:45.176Z,9.00
2019-03-09T10:55:22.037Z,9.00
2019-03-09T10:57:50.733Z,9.10
2019-03-09T11:00:21.873Z,9.20
2019-03-09T11:02:50.308Z,9.20
2019-03-09T11:05:18.729Z,9.10
2019-03-09T11:07:47.296Z,9.10
2019-03-09T11:10:15.801Z,9.10
2019-03-09T11:12:44.227Z,9.20
2019-03-09T11:15:12.900Z,9.20
2019-03-09T11:17:41.335Z,9.20
2019-03-09T11:20:14.830Z,9.20
2019-03-09T11:22:43.264Z,9.20
2019-03-09T11:25:12.132Z,9.20
2019-03-09T11:27:40.561Z,9.40
2019-03-09T11:30:23.848Z,9.20
2019-03-09T11:32:55.238Z,9.20
2019-03-09T11:35:24.014Z,9.10
2019-03-09T11:37:52.895Z,9.20
2019-03-09T11:40:21.630Z,9.20
2019-03-09T11:42:50.968Z,9.30
2019-03-09T11:45:23.784Z,9.30
2019-03-09T11:47:52.530Z,9.40
2019-03-09T11:50:25.008Z,9.30
2019-03-09T11:52:56.312Z,9.30
2019-03-09T11:56:36.171Z,9.30
2019-03-09T11:59:05.275Z,9.50
2019-03-09T12:01:34.703Z,9.60
2019-03-09T12:04:08.823Z,9.50
2019-03-09T12:06:39.746Z,9.50
2019-03-09T12:09:09.681Z,9.50
2019-03-09T12:11:38.135Z,9.50
2019-03-09T12:14:06.584Z,9.50
2019-03-09T12:16:34.996Z,9.50
2019-03-09T12:19:03.443Z,9.60
2019-03-09T12:21:31.896Z,9.70
2019-03-09T12:24:00.352Z,9.70
2019-03-09T12:26:28.791Z,9.60
2019-03-09T12:28:57.653Z,9.60
2019-03-09T12:31:26.084Z,9.50
2019-03-09T12:33:54.520Z,9.60
2019-03-09T12:36:23.019Z,9.60
2019-03-09T12:38:51.488Z,9.60
2019-03-09T12:41:19.975Z,9.70
2019-03-09T12:43:48.402Z,9.70
2019-03-09T12:46:16.857Z,9.70
2019-03-09T12:48:45.592Z,9.70
2019-03-09T12:51:14.030Z,9.60
2019-03-09T12:53:42.470Z,9.60
2019-03-09T12:56:10.905Z,9.60
2019-03-09T12:58:39.325Z,9.60
2019-03-09T13:01:07.760Z,9.60
2019-03-09T13:03:36.189Z,9.60
2019-03-09T13:06:04.632Z,9.70
2019-03-09T13:08:33.053Z,9.80
2019-03-09T13:11:01.490Z,9.80
2019-03-09T13:13:29.897Z,9.90
2019-03-09T13:15:58.325Z,9.90
2019-03-09T13:18:26.742Z,9.90
2019-03-09T13:20:55.175Z,9.90
2019-03-09T13:23:23.640Z,9.80
2019-03-09T13:25:52.132Z,9.80
2019-03-09T13:28:20.552Z,9.70
2019-03-09T13:30:48.987Z,9.70
2019-03-09T13:33:17.759Z,9.80
2019-03-09T13:35:46.248Z,9.90
2019-03-09T13:38:14.669Z,9.90
2019-03-09T13:40:43.104Z,9.90
2019-03-09T13:43:11.524Z,10.00
2019-03-09T13:45:39.965Z,10.00
2019-03-09T13:48:08.389Z,10.10
2019-03-09T13:50:36.851Z,10.10
2019-03-09T13:53:05.319Z,10.00
2019-03-09T13:55:33.789Z,9.90
2019-03-09T13:58:02.234Z,9.90
2019-03-09T14:00:40.134Z,10.00
2019-03-09T14:03:03.102Z,10.20
2019-03-09T14:05:31.388Z,10.20
2019-03-09T14:07:59.833Z,10.20
2019-03-09T14:10:28.403Z,10.20
2019-03-09T14:12:56.902Z,10.10
2019-03-09T14:15:25.402Z,10.20
2019-03-09T14:17:53.925Z,10.20
2019-03-09T14:20:22.364Z,10.10
2019-03-09T14:22:51.132Z,10.10
2019-03-09T14:25:19.569Z,10.20
2019-03-09T14:27:48.327Z,10.20
2019-03-09T14:30:18.086Z,10.20
2019-03-09T14:32:46.799Z,10.20
2019-03-09T14:35:15.216Z,10.20
2019-03-09T14:37:43.674Z,10.20
2019-03-09T14:40:14.922Z,10.30
2019-03-09T14:42:43.425Z,10.20
2019-03-09T14:45:17.019Z,10.20
2019-03-09T14:47:45.445Z,10.20
2019-03-09T14:50:14.352Z,10.10
2019-03-09T14:52:42.872Z,10.10
2019-03-09T14:55:12.641Z,10.00
2019-03-09T14:57:41.501Z,9.90
2019-03-09T15:00:24.088Z,9.80
2019-03-09T15:02:52.526Z,9.70
2019-03-09T15:05:21.062Z,9.70
2019-03-09T15:07:49.568Z,9.80
2019-03-09T15:10:18.289Z,9.80
2019-03-09T15:12:46.925Z,9.90
2019-03-09T15:15:17.767Z,10.00
2019-03-09T15:17:46.255Z,10.10
2019-03-09T15:20:16.177Z,10.10
2019-03-09T15:22:44.838Z,10.10
2019-03-09T15:25:19.969Z,9.90
2019-03-09T15:27:49.558Z,10.00
2019-03-09T15:30:19.238Z,10.00
2019-03-09T15:32:47.778Z,10.10
2019-03-09T15:35:17.456Z,10.10
2019-03-09T15:37:46.346Z,10.10
2019-03-09T15:40:17.595Z,10.20
2019-03-09T15:42:46.193Z,10.30
2019-03-09T15:45:16.053Z,10.20
2019-03-09T15:47:44.552Z,10.20
2019-03-09T15:50:15.620Z,10.10
2019-03-09T15:52:44.197Z,10.10
2019-03-09T15:55:13.202Z,9.90
2019-03-09T15:57:41.691Z,9.70
2019-03-09T16:00:18.522Z,9.50
2019-03-09T16:02:46.949Z,9.30
2019-03-09T16:05:16.053Z,9.30
2019-03-09T16:07:44.496Z,9.20
2019-03-09T16:10:15.280Z,9.00
2019-03-09T16:12:43.966Z,8.60
2019-03-09T16:15:16.445Z,8.10
2019-03-09T16:17:44.865Z,7.80
2019-03-09T16:20:15.752Z,7.70
2019-03-09T16:22:44.197Z,7.50
2019-03-09T16:25:12.776Z,7.50
2019-03-09T16:27:41.200Z,7.50
2019-03-09T16:30:19.941Z,7.50
2019-03-09T16:32:48.646Z,7.50
2019-03-09T16:35:17.079Z,7.60
2019-03-09T16:37:46.849Z,7.50
2019-03-09T16:40:20.577Z,7.60
2019-03-09T16:42:49.019Z,7.60
2019-03-09T16:45:17.602Z,7.50
2019-03-09T16:47:46.038Z,7.50
2019-03-09T16:50:16.305Z,7.40
2019-03-09T16:52:45.149Z,7.40
2019-03-09T16:55:13.723Z,7.30
2019-03-09T16:57:42.137Z,7.20
2019-03-09T17:00:16.697Z,7.20
2019-03-09T17:02:45.177Z,7.20
2019-03-09T17:05:14.281Z,7.30
2019-03-09T17:07:42.704Z,7.30
2019-03-09T17:10:12.681Z,7.30
2019-03-09T17:12:41.098Z,7.20
2019-03-09T17:15:14.918Z,7.20
2019-03-09T17:17:43.368Z,7.20
2019-03-09T17:20:14.164Z,7.10
2019-03-09T17:22:42.594Z,7.10
2019-03-09T17:25:11.161Z,7.10
2019-03-09T17:27:39.607Z,7.20
2019-03-09T17:30:13.554Z,7.20
2019-03-09T17:32:42.000Z,7.20
2019-03-09T17:35:10.520Z,7.20
2019-03-09T17:37:39.015Z,7.10
2019-03-09T17:40:09.675Z,7.00
2019-03-09T17:42:38.202Z,6.90
2019-03-09T17:45:15.545Z,6.80
2019-03-09T17:47:44.311Z,6.80
2019-03-09T17:50:13.760Z,6.80
2019-03-09T17:52:42.197Z,6.80
2019-03-09T17:55:11.597Z,6.60
2019-03-09T17:57:40.107Z,6.30
2019-03-09T18:00:20.274Z,6.10
2019-03-09T18:02:48.707Z,6.00
2019-03-09T18:05:19.453Z,5.80
2019-03-09T18:07:48.547Z,5.60
2019-03-09T18:10:38.321Z,5.50
2019-03-09T18:13:06.745Z,5.40
2019-03-09T18:15:35.172Z,5.30
2019-03-09T18:18:03.677Z,5.20
2019-03-09T18:20:32.120Z,5.10
2019-03-09T18:23:00.578Z,5.00
2019-03-09T18:25:28.993Z,4.90
2019-03-09T18:27:57.436Z,4.90
2019-03-09T18:30:25.873Z,4.80
2019-03-09T18:32:54.356Z,4.80
2019-03-09T18:35:22.785Z,4.80
2019-03-09T18:37:51.228Z,4.80
2019-03-09T18:40:19.651Z,4.80
2019-03-09T18:42:48.093Z,4.80
2019-03-09T18:45:19.600Z,4.70
2019-03-09T18:47:48.024Z,4.60
2019-03-09T18:50:16.536Z,4.70
2019-03-09T18:52:44.956Z,4.70
2019-03-09T18:55:13.452Z,4.70
2019-03-09T18:57:41.890Z,4.80
2019-03-09T19:00:20.201Z,4.80
2019-03-09T19:02:48.630Z,4.80
2019-03-09T19:05:17.061Z,4.80
2019-03-09T19:07:45.544Z,4.80
2019-03-09T19:10:16.105Z,4.90
2019-03-09T19:12:44.540Z,4.90
2019-03-09T19:15:15.212Z,4.90
2019-03-09T19:17:43.634Z,4.90
2019-03-09T19:20:17.033Z,4.80
2019-03-09T19:22:45.526Z,4.90
2019-03-09T19:25:14.994Z,4.80
2019-03-09T19:27:43.416Z,4.90
2019-03-09T19:30:17.781Z,4.90
2019-03-09T19:32:46.221Z,4.90
2019-03-09T19:35:14.718Z,5.00
2019-03-09T19:37:43.471Z,5.00
2019-03-09T19:40:16.619Z,5.00
2019-03-09T19:42:45.050Z,5.10
2019-03-09T19:45:15.516Z,5.10
2019-03-09T19:47:43.937Z,5.20
2019-03-09T19:50:20.433Z,5.20
2019-03-09T19:52:48.848Z,5.30
2019-03-09T19:55:17.281Z,5.30
2019-03-09T19:57:45.707Z,5.40
2019-03-09T20:00:19.006Z,5.50
2019-03-09T20:02:47.488Z,5.50
2019-03-09T20:05:16.053Z,5.60
2019-03-09T20:07:44.488Z,5.70
2019-03-09T20:10:23.363Z,5.60
2019-03-09T20:12:51.856Z,5.80
2019-03-09T20:15:20.954Z,5.80
2019-03-09T20:17:49.437Z,5.80
2019-03-09T20:20:21.021Z,5.80
2019-03-09T20:22:49.441Z,5.90
2019-03-09T20:25:17.869Z,5.90
2019-03-09T20:27:46.321Z,5.90
2019-03-09T20:30:17.887Z,5.90
2019-03-09T20:32:46.312Z,5.90
2019-03-09T20:35:14.813Z,5.90
2019-03-09T20:37:43.249Z,5.80
2019-03-09T20:40:15.749Z,5.80
2019-03-09T20:42:44.172Z,5.80
2019-03-09T20:45:19.149Z,5.80
2019-03-09T20:47:47.574Z,5.80
2019-03-09T20:50:18.752Z,5.80
2019-03-09T20:52:47.176Z,5.80
2019-03-09T20:55:15.692Z,5.80
2019-03-09T20:57:44.101Z,5.90
2019-03-09T21:00:20.765Z,5.80
2019-03-09T21:02:49.207Z,5.90
2019-03-09T21:05:17.752Z,5.90
2019-03-09T21:07:46.222Z,5.90
2019-03-09T21:10:19.331Z,6.00
2019-03-09T21:13:02.093Z,6.00
2019-03-09T21:15:30.607Z,6.00
2019-03-09T21:17:59.091Z,6.10
2019-03-09T21:20:27.572Z,6.00
2019-03-09T21:22:56.004Z,6.00
2019-03-09T21:25:24.423Z,6.00
2019-03-09T21:27:52.860Z,6.10
2019-03-09T21:30:21.302Z,6.10
2019-03-09T21:32:49.728Z,6.10
2019-03-09T21:35:18.154Z,6.10
2019-03-09T21:37:46.585Z,6.10
2019-03-09T21:40:15.020Z,6.10
2019-03-09T21:42:43.469Z,6.10
2019-03-09T21:45:13.520Z,6.10
2019-03-09T21:47:41.956Z,6.00
2019-03-09T21:50:13.193Z,6.00
2019-03-09T21:52:41.624Z,6.00
2019-03-09T21:55:12.968Z,6.10
2019-03-09T21:57:41.724Z,6.10
2019-03-09T22:00:13.034Z,6.20
2019-03-09T22:02:41.485Z,6.10
2019-03-09T22:05:11.769Z,6.10
2019-03-09T22:07:40.210Z,6.10
2019-03-09T22:10:10.475Z,6.20
2019-03-09T22:12:38.915Z,6.20
2019-03-09T22:15:09.993Z,6.20
2019-03-09T22:17:38.452Z,6.20
2019-03-09T22:20:12.465Z,6.20
2019-03-09T22:22:40.904Z,6.20
2019-03-09T22:25:12.469Z,6.20
2019-03-09T22:27:40.917Z,6.10
2019-03-09T22:30:14.113Z,6.10
2019-03-09T22:32:42.542Z,6.00
2019-03-09T22:35:12.406Z,6.10
2019-03-09T22:37:40.832Z,6.00
2019-03-09T22:40:11.192Z,6.00
2019-03-09T22:42:39.620Z,6.00
2019-03-09T22:45:10.564Z,5.90
2019-03-09T22:47:39.005Z,5.80
2019-03-09T22:50:22.650Z,5.80
2019-03-09T22:52:51.079Z,5.80
2019-03-09T22:55:19.561Z,5.80
2019-03-09T22:57:48.002Z,5.80
2019-03-09T23:00:24.164Z,5.70
2019-03-09T23:02:52.597Z,5.80
2019-03-09T23:05:21.011Z,5.80
2019-03-09T23:07:49.439Z,5.80
2019-03-09T23:10:22.448Z,5.70
2019-03-09T23:12:50.880Z,5.70
2019-03-09T23:15:19.745Z,5.70
2019-03-09T23:17:48.184Z,5.70
2019-03-09T23:20:17.061Z,5.60
2019-03-09T23:22:45.574Z,5.60
2019-03-09T23:25:14.694Z,5.60
2019-03-09T23:27:43.123Z,5.60
2019-03-09T23:30:20.210Z,5.60
2019-03-09T23:32:48.705Z,5.60
2019-03-09T23:35:17.197Z,5.60
2019-03-09T23:37:46.673Z,5.60
2019-03-09T23:40:16.750Z,5.60
2019-03-09T23:42:45.166Z,5.60
2019-03-09T23:45:16.453Z,5.50
2019-03-09T23:47:44.884Z,5.60
2019-03-09T23:50:15.546Z,5.50
2019-03-09T23:52:44.335Z,5.50
2019-03-09T23:55:21.452Z,5.50
2019-03-09T23:57:43.423Z,5.50
